Terminal Aerodrome Forecast
Issued by NWS Grand Forks, ND

Home | Current Version | Previous Version | Text Only | Print | Product List | Glossary On
Versions: 1 2 3 4 5 6 7 8 9 10 11 12 13 14 15 16 17 18 19 20 21 22 23
145
FTUS43 KFGF 232325
TAFFAR
TAF
KFAR 232325Z 2400/2424 18012KT P6SM SCT200
     FM240500 21009KT P6SM BKN200
     FM241500 25013KT P6SM -RA BKN025
     FM241600 29027G40KT P6SM -RA BKN025
     FM241700 30024G36KT P6SM SCT250
     FM241800 30018G27KT P6SM FEW250=

USA.gov is the U.S. government's official web portal to all federal, state and local government web resources and services.